Time;durP1;ratioP1;P1;durP2;ratioP2;P2;SDS_P1;SDS_P2;PMS_P1;PMS_P2;Temp;Humidity;BMP_temperature;BMP_pressure;BME280_temperature;BME280_humidity;BME280_pressure;Samples;Min_cycle;Max_cycle;Signal;HPM_P1;HPM_P2
2022/05/18 00:00:23;;;;;;;7.50;3.92;;;;;;;-148.88;91.58;75667.53;4976631;28;20037;-83
2022/05/18 00:02:48;;;;;;;8.90;4.30;;;;;;;-148.88;91.73;75671.59;4994635;28;20026;-83
2022/05/18 00:05:14;;;;;;;7.68;4.80;;;;;;;-148.88;91.88;75677.69;4994339;28;20387;-83
2022/05/18 00:07:39;;;;;;;7.25;4.25;;;;;;;-148.88;92.08;75683.78;4993949;28;20029;-83
2022/05/18 00:10:05;;;;;;;6.97;4.20;;;;;;;-148.88;92.09;75677.69;4993912;28;20101;-83
2022/05/18 00:12:30;;;;;;;6.70;4.13;;;;;;;-148.88;92.83;75683.78;4993820;28;20026;-83
2022/05/18 00:14:56;;;;;;;8.15;4.68;;;;;;;-148.88;93.02;75689.88;4993995;28;20022;-83
2022/05/18 00:17:21;;;;;;;6.38;4.13;;;;;;;-148.88;93.15;75687.84;4993913;28;20476;-83
2022/05/18 00:19:47;;;;;;;8.40;4.22;;;;;;;-148.88;93.11;75695.97;4976316;28;20030;-83
2022/05/18 00:22:12;;;;;;;7.22;4.10;;;;;;;-148.88;93.55;75693.94;4994283;28;20092;-83
2022/05/18 00:24:38;;;;;;;10.07;4.60;;;;;;;-148.88;93.89;75700.03;4993889;28;20127;-83
2022/05/18 00:27:03;;;;;;;7.22;3.97;;;;;;;-148.88;94.15;75704.09;4976793;28;20100;-83
2022/05/18 00:29:32;;;;;;;8.77;4.22;;;;;;;-148.88;94.60;75704.09;4993971;28;20544;-83
2022/05/18 00:31:57;;;;;;;8.05;4.18;;;;;;;-148.88;94.62;75704.09;4993927;28;20407;-83
2022/05/18 00:34:23;;;;;;;7.57;4.25;;;;;;;-148.88;94.55;75708.16;4994125;28;20030;-83
2022/05/18 00:36:48;;;;;;;7.50;4.20;;;;;;;-148.88;94.84;75706.13;4993890;28;20038;-83
2022/05/18 00:39:14;;;;;;;6.88;4.25;;;;;;;-148.88;95.06;75704.09;4993740;28;20034;-83
2022/05/18 00:41:39;;;;;;;6.72;4.15;;;;;;;-148.88;94.95;75706.13;4993703;28;20027;-83
2022/05/18 00:44:05;;;;;;;6.82;4.15;;;;;;;-148.88;95.26;75708.16;4994239;28;20037;-82
2022/05/18 00:46:31;;;;;;;9.88;4.57;;;;;;;-148.88;95.19;75712.22;4976205;28;20022;-83
2022/05/18 00:48:56;;;;;;;6.85;4.38;;;;;;;-148.88;95.00;75708.16;4993790;28;20361;-83
2022/05/18 00:51:37;;;;;;;8.00;4.78;;;;;;;-148.88;94.74;75712.22;4993874;28;20101;-83
2022/05/18 00:54:16;;;;;;;8.32;4.35;;;;;;;-148.88;94.30;75708.16;4993571;28;20595;-83
2022/05/18 00:56:50;;;;;;;8.35;4.43;;;;;;;-148.88;94.07;75710.19;4976304;28;20022;-83
2022/05/18 00:59:20;;;;;;;8.50;4.40;;;;;;;-148.88;94.09;75700.03;4993828;28;20057;-83
2022/05/18 01:01:45;;;;;;;7.68;4.40;;;;;;;-148.88;93.99;75708.16;4975988;28;20030;-82
2022/05/18 01:04:14;;;;;;;7.93;4.47;;;;;;;-148.88;94.06;75708.16;4993899;28;20362;-83
2022/05/18 01:06:54;;;;;;;8.25;4.72;;;;;;;-148.88;94.13;75720.34;4976082;28;20022;-82
2022/05/18 01:09:27;;;;;;;8.60;4.68;;;;;;;-148.88;94.39;75720.34;4994048;28;20372;-83
2022/05/18 01:11:53;;;;;;;7.07;4.57;;;;;;;-148.88;94.58;75724.41;4997848;28;20036;-83
2022/05/18 01:14:29;;;;;;;7.95;4.25;;;;;;;-148.88;94.43;75728.47;4997191;28;20052;-83
2022/05/18 01:16:55;;;;;;;8.75;4.40;;;;;;;-148.88;94.89;75726.44;4979767;28;20450;-82
2022/05/18 01:19:44;;;;;;;8.05;4.57;;;;;;;-148.88;94.96;75728.47;4997567;28;20472;-83
2022/05/18 01:22:31;;;;;;;10.30;4.82;;;;;;;-148.88;94.87;75732.53;5052601;22;20045;-76
2022/05/18 01:25:18;;;;;;;7.22;4.35;;;;;;;-148.88;95.22;75740.66;5035748;28;20108;-76
2022/05/18 01:27:44;;;;;;;8.70;4.55;;;;;;;-148.88;94.95;75746.75;5017869;28;20389;-76
2022/05/18 01:30:11;;;;;;;6.20;4.38;;;;;;;-148.88;94.73;75742.69;5017990;28;20117;-75
2022/05/18 01:32:42;;;;;;;6.38;4.13;;;;;;;-148.88;94.78;75754.88;5035537;28;20117;-76
2022/05/18 01:35:10;;;;;;;6.75;4.18;;;;;;;-148.88;94.64;75754.88;5035881;28;20060;-76
2022/05/18 01:37:36;;;;;;;6.88;4.03;;;;;;;-148.88;94.77;75760.97;5035607;28;20486;-76
2022/05/18 01:40:08;;;;;;;9.02;3.90;;;;;;;-148.88;94.89;75754.88;5035675;28;20037;-75
2022/05/18 01:42:42;;;;;;;7.35;3.78;;;;;;;-148.88;94.75;75769.09;5035767;28;20040;-76
2022/05/18 01:45:07;;;;;;;6.90;3.92;;;;;;;-148.88;94.93;75773.16;5035480;28;20132;-75
2022/05/18 01:47:34;;;;;;;7.60;3.70;;;;;;;-148.88;95.01;75777.22;5035639;28;20506;-76
2022/05/18 01:50:03;;;;;;;6.20;4.22;;;;;;;-148.88;95.09;75777.22;5035312;28;20136;-76
2022/05/18 01:52:28;;;;;;;8.30;4.45;;;;;;;-148.88;95.30;75785.34;5017405;28;20021;-75
2022/05/18 01:54:53;;;;;;;8.52;4.13;;;;;;;-148.88;95.65;75789.41;5035472;28;20112;-76
2022/05/18 01:57:19;;;;;;;6.72;4.03;;;;;;;-148.88;95.67;75789.41;5035284;28;20021;-76
2022/05/18 01:59:44;;;;;;;8.32;4.00;;;;;;;-148.88;95.56;75793.47;5035037;28;20495;-75
2022/05/18 02:02:10;;;;;;;6.65;4.22;;;;;;;-148.88;95.71;75801.59;5034956;28;20017;-76
2022/05/18 02:04:36;;;;;;;7.68;4.35;;;;;;;-148.88;96.04;75805.66;5035060;28;20029;-76
2022/05/18 02:07:02;;;;;;;7.43;4.50;;;;;;;-148.88;96.60;75805.66;5034742;28;20090;-76
2022/05/18 02:09:29;;;;;;;9.98;4.85;;;;;;;-148.88;96.95;75813.78;5017207;28;20394;-76
2022/05/18 02:11:54;;;;;;;9.85;4.57;;;;;;;-148.88;97.46;75813.78;5035152;28;20022;-76
2022/05/18 02:14:21;;;;;;;8.98;4.68;;;;;;;-148.88;98.07;75817.84;5034805;28;20033;-76
2022/05/18 02:16:46;;;;;;;7.57;4.80;;;;;;;-148.88;98.08;75825.97;5017087;28;20022;-76
2022/05/18 02:19:12;;;;;;;8.68;4.88;;;;;;;-148.88;98.38;75817.84;5035272;28;20025;-76
2022/05/18 02:21:37;;;;;;;7.35;4.75;;;;;;;-148.88;98.40;75823.94;5016752;28;20052;-76
2022/05/18 02:24:02;;;;;;;7.57;4.50;;;;;;;-148.88;98.58;75825.97;5034834;28;20031;-76
2022/05/18 02:26:28;;;;;;;9.75;5.03;;;;;;;-148.88;98.98;75830.03;5034662;28;20514;-76
2022/05/18 02:28:53;;;;;;;9.48;4.82;;;;;;;-148.88;99.01;75830.03;5016977;28;20482;-76
2022/05/18 02:31:18;;;;;;;6.63;4.80;;;;;;;-148.88;99.31;75832.06;5034886;28;20108;-76
2022/05/18 02:33:44;;;;;;;9.25;4.75;;;;;;;-148.88;99.04;75825.97;5034806;28;20438;-76
2022/05/18 02:36:11;;;;;;;11.05;5.18;;;;;;;-148.88;99.49;75830.03;5016623;28;20021;-75
2022/05/18 02:38:37;;;;;;;8.52;4.65;;;;;;;-148.88;99.54;75836.13;5017062;28;20540;-76
2022/05/18 02:41:03;;;;;;;9.05;4.70;;;;;;;-148.88;99.77;75838.16;5034883;28;20030;-76
2022/05/18 02:43:29;;;;;;;8.80;5.15;;;;;;;-148.88;99.96;75840.19;5016948;28;20060;-75
2022/05/18 02:46:03;;;;;;;8.15;5.03;;;;;;;-148.88;100.00;75846.28;5034936;28;20079;-75
2022/05/18 02:48:28;;;;;;;8.38;5.00;;;;;;;-148.88;99.88;75846.28;5034583;28;20021;-76
2022/05/18 02:50:54;;;;;;;6.88;4.50;;;;;;;-148.88;100.00;75848.31;5016789;28;20032;-76
2022/05/18 02:53:19;;;;;;;9.65;5.03;;;;;;;-148.88;100.00;75854.41;5034503;28;20024;-76
2022/05/18 02:58:28;;;;;;;;;;;;;;;-148.88;100.00;75858.47;5034881;28;20035;-76
2022/05/18 03:00:53;;;;;;;8.57;5.53;;;;;;;-148.88;100.00;75866.59;5034346;28;19913;-76
2022/05/18 03:03:19;;;;;;;8.68;4.95;;;;;;;-148.88;100.00;75860.50;5034344;28;20048;-76
2022/05/18 03:05:44;;;;;;;9.30;5.07;;;;;;;-148.88;100.00;75864.56;5034279;28;20456;-76
2022/05/18 03:08:09;;;;;;;8.90;5.45;;;;;;;-148.88;100.00;75858.47;5034146;28;20029;-76
2022/05/18 03:10:36;;;;;;;9.38;4.80;;;;;;;-148.88;100.00;75862.53;5034466;28;20025;-76
2022/05/18 03:13:01;;;;;;;8.68;4.90;;;;;;;-148.88;100.00;75866.59;5034396;28;20029;-76
2022/05/18 03:15:26;;;;;;;9.20;5.40;;;;;;;-148.88;100.00;75868.63;5034007;28;20075;-76
2022/05/18 03:17:53;;;;;;;9.40;5.38;;;;;;;-148.88;100.00;75878.78;5033911;28;20075;-76
2022/05/18 03:25:47;;;;;;;12.38;5.68;;;;;;;-148.88;100.00;75876.75;5033946;28;20036;-76
2022/05/18 03:28:12;;;;;;;8.32;5.03;;;;;;;-148.88;100.00;75882.84;5016043;28;20394;-76
2022/05/18 03:30:37;;;;;;;7.43;5.55;;;;;;;-148.88;100.00;75878.78;5033856;28;20100;-76
2022/05/18 03:33:03;;;;;;;8.32;4.95;;;;;;;-148.88;100.00;75882.84;5033624;28;20021;-75
2022/05/18 03:35:29;;;;;;;10.27;5.55;;;;;;;-148.88;100.00;75884.88;5033733;28;20049;-76
2022/05/18 03:37:54;;;;;;;10.98;4.72;;;;;;;-148.88;100.00;75882.84;5033904;28;20099;-76
2022/05/18 03:40:20;;;;;;;7.35;4.55;;;;;;;-148.88;100.00;75886.91;5015908;28;20112;-76
2022/05/18 03:42:45;;;;;;;8.45;4.82;;;;;;;-148.88;100.00;75890.97;5015958;28;20035;-76
2022/05/18 03:45:10;;;;;;;8.40;4.97;;;;;;;-148.88;99.97;75897.06;5033575;28;20397;-76
2022/05/18 03:47:36;;;;;;;7.95;5.13;;;;;;;-148.88;100.00;75895.03;5015852;28;20429;-75
2022/05/18 03:50:02;;;;;;;7.53;5.10;;;;;;;-148.88;100.00;75899.09;5033693;28;20525;-75
2022/05/18 03:52:27;;;;;;;9.15;5.47;;;;;;;-148.88;99.85;75907.22;5033657;28;20029;-75
2022/05/18 03:54:52;;;;;;;8.50;5.03;;;;;;;-148.88;100.00;75911.28;5033551;28;20056;-76
2022/05/18 03:57:19;;;;;;;7.25;4.80;;;;;;;-148.88;100.00;75913.31;5033311;28;20467;-76
2022/05/18 03:59:44;;;;;;;10.38;5.18;;;;;;;-148.88;100.00;75913.31;5033357;28;20112;-76
2022/05/18 04:02:09;;;;;;;8.30;5.30;;;;;;;-148.88;100.00;75915.34;5015495;28;20104;-76
2022/05/18 04:04:35;;;;;;;10.10;5.28;;;;;;;-148.88;100.00;75919.41;5033228;28;20060;-77
2022/05/18 04:07:00;;;;;;;8.65;5.70;;;;;;;-148.88;100.00;75923.47;5033433;28;20029;-76
2022/05/18 04:09:26;;;;;;;9.30;4.90;;;;;;;-148.88;100.00;75921.44;5033536;28;20542;-76
2022/05/18 04:11:51;;;;;;;8.90;5.47;;;;;;;-148.88;100.00;75923.47;5033498;28;20022;-76
2022/05/18 04:14:16;;;;;;;7.07;5.25;;;;;;;-148.88;100.00;75927.53;5033114;28;20071;-77
2022/05/18 04:16:42;;;;;;;7.65;5.38;;;;;;;-148.88;100.00;75931.59;5033007;28;20078;-76
2022/05/18 04:19:07;;;;;;;6.70;5.25;;;;;;;-148.88;100.00;75933.63;5015534;28;20025;-76
2022/05/18 04:21:33;;;;;;;12.00;5.60;;;;;;;-148.88;100.00;75931.59;5032982;28;20120;-75
2022/05/18 04:23:58;;;;;;;10.05;5.53;;;;;;;-148.88;100.00;75939.72;5033177;28;20479;-75
2022/05/18 04:26:23;;;;;;;10.15;5.13;;;;;;;-148.88;100.00;75929.56;5033226;28;20064;-74
2022/05/18 04:28:49;;;;;;;6.95;5.00;;;;;;;-148.88;100.00;75937.69;5033005;28;20033;-74
2022/05/18 04:31:14;;;;;;;8.27;5.20;;;;;;;-148.88;100.00;75931.59;5015252;28;20036;-75
2022/05/18 04:33:40;;;;;;;11.35;6.22;;;;;;;-148.88;100.00;75927.53;5032963;28;20105;-75
2022/05/18 04:36:05;;;;;;;7.03;5.53;;;;;;;-148.88;100.00;75921.44;5032898;28;20025;-74
2022/05/18 04:38:32;;;;;;;7.65;5.22;;;;;;;-148.88;100.00;75919.41;5015591;28;20017;-76
2022/05/18 04:40:57;;;;;;;10.32;5.70;;;;;;;-148.88;100.00;75915.34;5033165;28;20025;-76
2022/05/18 04:43:24;;;;;;;13.27;5.50;;;;;;;-148.88;100.00;75911.28;5034620;28;20376;-76
2022/05/18 04:45:51;;;;;;;11.00;5.78;;;;;;;-148.88;100.00;75915.34;5036421;28;20021;-76
2022/05/18 04:48:18;;;;;;;10.80;5.75;;;;;;;-148.88;100.00;75905.19;5037194;28;20021;-76
2022/05/18 04:50:45;;;;;;;11.00;6.32;;;;;;;-148.88;100.00;75909.25;5037097;28;20055;-76
2022/05/18 04:53:11;;;;;;;11.23;5.93;;;;;;;-148.88;100.00;75905.19;5036956;28;20032;-76
2022/05/18 04:55:37;;;;;;;11.95;5.90;;;;;;;-148.88;100.00;75899.09;5037004;28;20083;-76
2022/05/18 04:58:03;;;;;;;9.35;6.32;;;;;;;-148.88;100.00;75897.06;5036582;28;20404;-77
2022/05/18 05:00:29;;;;;;;10.18;6.25;;;;;;;-148.88;100.00;75895.03;5037245;28;20479;-76
2022/05/18 05:02:57;;;;;;;10.38;6.32;;;;;;;-148.88;100.00;75895.03;5019244;28;20018;-76
2022/05/18 05:05:24;;;;;;;9.15;6.05;;;;;;;-148.88;100.00;75890.97;5036759;28;20509;-77
2022/05/18 05:07:50;;;;;;;7.90;5.82;;;;;;;-148.88;100.00;75882.84;5036444;28;20033;-76
2022/05/18 05:10:17;;;;;;;9.45;6.05;;;;;;;-148.88;100.00;75882.84;5018739;28;20024;-76
2022/05/18 05:12:42;;;;;;;12.00;6.40;;;;;;;-148.88;100.00;75872.69;5036343;28;20029;-76
2022/05/18 05:15:09;;;;;;;8.57;5.55;;;;;;;-148.88;100.00;75866.59;5018650;28;20074;-76
2022/05/18 05:17:35;;;;;;;13.95;5.97;;;;;;;-148.88;100.00;75870.66;5036135;28;20444;-76
2022/05/18 05:20:00;;;;;;;8.88;6.18;;;;;;;-148.88;100.00;75858.47;5036614;28;20026;-76
2022/05/18 05:22:26;;;;;;;10.05;5.78;;;;;;;-148.88;100.00;75862.53;5018442;28;20030;-75
2022/05/18 05:24:51;;;;;;;8.27;6.18;;;;;;;-148.88;100.00;75850.34;5036354;28;20032;-77
2022/05/18 05:27:17;;;;;;;10.38;6.22;;;;;;;-148.88;100.00;75848.31;5036340;28;20021;-77
2022/05/18 05:29:42;;;;;;;9.82;6.43;;;;;;;-148.88;100.00;75850.34;5036356;28;20108;-77
2022/05/18 05:32:08;;;;;;;9.25;5.78;;;;;;;-148.88;100.00;75848.31;5018861;28;20383;-77
2022/05/18 05:34:34;;;;;;;7.28;6.07;;;;;;;-148.88;100.00;75838.16;5018286;28;20025;-77
2022/05/18 05:37:00;;;;;;;12.10;6.50;;;;;;;-148.88;100.00;75836.13;5035950;28;20033;-77
2022/05/18 05:39:25;;;;;;;12.13;6.65;;;;;;;-148.88;100.00;75825.97;5036159;28;20028;-77
2022/05/18 05:41:50;;;;;;;11.70;6.70;;;;;;;-148.88;100.00;75811.75;5037361;28;20043;-76
2022/05/18 05:44:16;;;;;;;10.45;6.45;;;;;;;-148.88;100.00;75801.59;5036474;28;20099;-77
2022/05/18 05:46:41;;;;;;;13.35;6.78;;;;;;;-148.88;100.00;75781.28;5019394;28;20029;-77
2022/05/18 05:49:06;;;;;;;11.60;6.78;;;;;;;-148.88;99.97;75763.00;5036926;28;20471;-77
2022/05/18 05:51:31;;;;;;;9.85;6.32;;;;;;;-148.88;98.85;75746.75;5036056;28;20403;-77
2022/05/18 05:53:57;;;;;;;11.02;7.00;;;;;;;-148.88;98.12;75734.56;5036628;28;20040;-77
2022/05/18 05:56:22;;;;;;;8.40;6.07;;;;;;;-148.88;97.52;75720.34;5035267;28;20117;-77
2022/05/18 05:58:49;;;;;;;11.25;6.10;;;;;;;-148.88;96.35;75722.38;5035820;28;20105;-77
2022/05/18 06:01:15;;;;;;;11.30;6.07;;;;;;;-148.88;96.08;75718.31;5017749;28;20063;-77
2022/05/18 06:03:41;;;;;;;12.43;6.43;;;;;;;-148.88;95.80;75716.28;5035718;28;20100;-77
2022/05/18 06:06:08;;;;;;;9.43;6.47;;;;;;;-148.88;95.64;75700.03;5017671;28;20509;-77
2022/05/18 06:08:34;;;;;;;8.50;6.05;;;;;;;-148.88;95.25;75691.91;5035996;28;20394;-77
2022/05/18 06:10:59;;;;;;;10.55;6.22;;;;;;;-148.88;95.09;75675.66;5035782;28;20462;-77
2022/05/18 06:13:26;;;;;;;8.43;5.55;;;;;;;-148.88;95.16;75663.47;5018046;28;20025;-77
2022/05/18 06:15:52;;;;;;;7.90;5.25;;;;;;;-148.88;94.16;75655.34;5035457;28;20025;-77
2022/05/18 06:18:17;;;;;;;7.93;6.28;;;;;;;-148.88;93.74;75643.16;5035643;28;20493;-77
2022/05/18 06:20:44;;;;;;;8.70;5.70;;;;;;;-148.88;94.36;75626.91;5035711;28;20096;-77
2022/05/18 06:23:10;;;;;;;10.25;5.60;;;;;;;-148.88;93.56;75622.84;5035735;28;20026;-77
2022/05/18 06:25:36;;;;;;;11.13;5.65;;;;;;;-148.88;93.66;75630.97;5017510;28;20026;-77
2022/05/18 06:28:03;;;;;;;8.40;5.75;;;;;;;-148.88;93.40;75635.03;5035344;28;20075;-77
2022/05/18 06:30:28;;;;;;;11.18;5.63;;;;;;;-148.88;93.70;75628.94;5017221;28;20021;-77
2022/05/18 06:32:53;;;;;;;10.80;5.22;;;;;;;-148.88;94.09;75618.78;5034962;28;20028;-77
2022/05/18 06:35:19;;;;;;;8.45;5.22;;;;;;;-148.88;94.34;75608.63;5035221;28;20494;-77
2022/05/18 06:37:45;;;;;;;12.38;5.70;;;;;;;-148.88;93.64;75598.47;5035609;28;20022;-77
2022/05/18 06:40:11;;;;;;;9.52;5.60;;;;;;;-148.88;92.78;75580.22;5037914;28;20429;-77
2022/05/18 06:42:36;;;;;;;8.68;6.05;;;;;;;-148.88;93.87;75561.94;5019289;28;20126;-77
2022/05/18 06:45:03;;;;;;;10.02;5.57;;;;;;;-148.88;93.96;75537.56;5037193;28;20028;-77
2022/05/18 06:47:29;;;;;;;9.75;5.72;;;;;;;-148.88;92.65;75527.41;5035115;28;20026;-77
2022/05/18 06:49:54;;;;;;;10.35;6.28;;;;;;;-148.88;92.02;75517.25;5034813;28;20032;-77
2022/05/18 06:52:20;;;;;;;8.77;5.25;;;;;;;-148.88;91.07;75496.94;5034838;28;20033;-77
2022/05/18 06:54:46;;;;;;;11.15;6.15;;;;;;;-148.88;92.21;75482.72;5034596;28;20021;-77
2022/05/18 06:57:12;;;;;;;9.63;5.70;;;;;;;-148.88;90.51;75468.50;5016955;28;20021;-77
2022/05/18 06:59:37;;;;;;;7.55;5.20;;;;;;;-148.88;88.29;75454.28;5034814;28;20083;-77
2022/05/18 07:02:03;;;;;;;10.32;5.75;;;;;;;-148.88;86.91;75427.88;5035448;28;20025;-77
2022/05/18 07:04:28;;;;;;;11.00;5.20;;;;;;;-148.88;85.00;75427.88;5034505;28;20040;-77
2022/05/18 07:06:54;;;;;;;9.07;5.13;;;;;;;-148.88;86.14;75433.97;5033386;28;20032;-77
2022/05/18 07:09:22;;;;;;;13.68;5.50;;;;;;;-148.88;85.64;75442.09;5034238;28;20108;-77
2022/05/18 07:11:49;;;;;;;8.82;5.30;;;;;;;-148.88;87.18;75431.94;5016773;28;20021;-77
2022/05/18 07:14:20;;;;;;;9.65;5.20;;;;;;;-148.88;89.53;75415.69;5034208;28;20088;-77
2022/05/18 07:16:46;;;;;;;9.95;5.50;;;;;;;-148.88;88.78;75407.56;5016384;28;20474;-77
2022/05/18 07:19:13;;;;;;;7.75;5.32;;;;;;;-148.88;87.35;75391.31;5016473;28;20116;-77
2022/05/18 07:21:38;;;;;;;7.25;5.18;;;;;;;-148.88;86.55;75368.97;5055494;22;20140;-85
2022/05/18 07:24:04;;;;;;;8.57;5.50;;;;;;;-148.88;86.30;75346.63;5033661;28;20104;-85
2022/05/18 07:26:31;;;;;;;7.88;5.07;;;;;;;-148.88;86.37;75322.25;5033361;28;20040;-86
2022/05/18 07:28:57;;;;;;;8.82;5.05;;;;;;;-148.88;85.56;75310.06;5016225;28;20022;-85
2022/05/18 07:31:23;;;;;;;11.63;5.90;;;;;;;-148.88;86.96;75289.75;5015445;28;20022;-85
2022/05/18 07:33:48;;;;;;;10.30;5.22;;;;;;;-148.88;87.26;75281.66;5033262;28;20026;-83
2022/05/18 07:36:18;;;;;;;8.48;5.45;;;;;;;-148.88;85.47;75269.47;5033212;28;20025;-85
2022/05/18 07:38:44;;;;;;;7.57;4.78;;;;;;;-148.88;85.68;75257.28;5033405;28;20097;-86
2022/05/18 07:41:11;;;;;;;5.78;4.95;;;;;;;-148.88;83.29;75245.09;5033073;28;20029;-85
2022/05/18 07:43:37;;;;;;;7.22;4.57;;;;;;;-148.88;85.38;75220.72;5033173;28;20044;-85
2022/05/18 07:46:04;;;;;;;8.27;4.28;;;;;;;-148.88;78.59;75214.63;5034201;28;20032;-85
2022/05/18 07:48:29;;;;;;;9.32;3.67;;;;;;;-148.88;76.53;75200.41;5015872;28;20025;-85
2022/05/18 07:50:56;;;;;;;5.93;3.60;;;;;;;-148.88;77.93;75188.22;5033776;28;20098;-85
2022/05/18 07:53:21;;;;;;;6.68;3.97;;;;;;;-148.88;74.03;75176.03;5033392;28;20044;-85
2022/05/18 07:55:47;;;;;;;6.15;3.50;;;;;;;-148.88;73.81;75176.03;5032982;28;20029;-86
2022/05/18 07:58:15;;;;;;;6.53;3.90;;;;;;;-148.88;74.51;75163.84;5015231;28;20036;-85
2022/05/18 08:00:40;;;;;;;6.03;4.00;;;;;;;-148.88;75.19;75149.63;5033179;28;20028;-85
2022/05/18 08:03:08;;;;;;;7.65;4.05;;;;;;;-148.88;74.82;75143.53;5033205;28;20030;-85
2022/05/18 08:05:33;;;;;;;8.32;4.30;;;;;;;-148.88;74.99;75129.31;5015218;28;20029;-85
2022/05/18 08:08:04;;;;;;;7.40;3.83;;;;;;;-148.88;74.53;75131.34;5032866;28;20478;-83
2022/05/18 08:15:56;;;;;;;6.68;4.10;;;;;;;-148.88;75.21;75088.72;5033180;28;20023;-84
2022/05/18 08:18:22;;;;;;;9.45;4.50;;;;;;;-148.88;72.88;75092.78;5032652;28;20069;-85
2022/05/18 08:20:48;;;;;;;8.23;4.07;;;;;;;-148.88;73.99;75068.41;5014706;28;20029;-85
2022/05/18 08:23:14;;;;;;;7.30;3.80;;;;;;;-148.88;73.77;75054.19;5032898;28;20026;-85
2022/05/18 08:25:40;;;;;;;5.88;3.58;;;;;;;-148.88;75.48;75035.91;5032983;28;20101;-85
2022/05/18 08:28:08;;;;;;;5.72;3.70;;;;;;;-148.88;70.93;75035.91;5014791;28;20604;-84
2022/05/18 08:30:33;;;;;;;6.65;3.28;;;;;;;-148.88;68.65;75033.88;5032406;28;20080;-84
2022/05/18 08:32:59;;;;;;;8.48;3.45;;;;;;;-148.88;66.85;75009.50;5032501;28;20021;-85
2022/05/18 08:35:25;;;;;;;6.90;3.75;;;;;;;-148.88;67.82;75005.44;5032675;28;20025;-84
2022/05/18 08:37:51;;;;;;;9.35;3.75;;;;;;;-148.88;66.18;75007.47;5015303;28;20026;-84
2022/05/18 08:40:28;;;;;;;6.10;3.60;;;;;;;-148.88;66.25;74999.34;5032848;28;20033;-83
2022/05/18 08:42:58;;;;;;;4.18;3.30;;;;;;;-148.88;65.30;74985.13;5033208;28;20038;-83
2022/05/18 08:45:29;;;;;;;8.32;3.40;;;;;;;-148.88;64.61;74972.94;5015172;28;20107;-84
2022/05/18 08:48:06;;;;;;;6.85;3.83;;;;;;;-148.88;67.99;74954.66;5015500;28;20029;-83
2022/05/18 08:50:33;;;;;;;7.97;3.75;;;;;;;-148.88;66.88;74930.31;5033782;28;20028;-83
2022/05/18 08:53:23;;;;;;;6.35;3.17;;;;;;;-148.88;64.08;74912.03;5032949;28;20128;-84
2022/05/18 08:56:01;;;;;;;8.35;3.38;;;;;;;-148.88;62.65;74903.91;5033268;28;20017;-84
2022/05/18 08:58:37;;;;;;;7.72;3.33;;;;;;;-148.88;63.99;74869.38;5033365;28;20022;-84
2022/05/18 09:01:42;;;;;;;4.88;3.10;;;;;;;-148.88;63.33;74871.41;5032972;28;20379;-84
2022/05/18 09:04:10;;;;;;;6.90;3.35;;;;;;;-148.88;58.40;74861.25;5024330;28;20045;-83
2022/05/18 09:07:02;;;;;;;6.95;3.55;;;;;;;-148.88;60.44;74861.25;5015061;28;20025;-83
2022/05/18 09:12:36;;;;;;;5.70;3.08;;;;;;;-148.88;59.88;74834.84;5032983;28;20092;-84
2022/05/18 09:15:04;;;;;;;4.60;3.20;;;;;;;-148.88;61.05;74816.56;5032653;28;20465;-85
2022/05/18 09:17:36;;;;;;;5.05;3.45;;;;;;;-148.88;59.66;74808.47;5033034;28;20028;-84
2022/05/18 09:20:15;;;;;;;5.93;3.08;;;;;;;-148.88;57.81;74804.41;5015000;28;20112;-83
2022/05/18 09:22:57;;;;;;;8.00;3.28;;;;;;;-148.88;59.95;74757.69;5014853;28;20036;-84
2022/05/18 09:25:56;;;;;;;3.92;2.80;;;;;;;-148.88;59.65;74729.25;5015070;28;20376;-83
2022/05/18 09:28:26;;;;;;;6.85;3.30;;;;;;;-148.88;54.58;74713.00;5032894;28;20026;-85
2022/05/18 09:31:16;;;;;;;5.00;2.90;;;;;;;-148.88;59.94;74668.34;5033997;28;20021;-85
2022/05/18 09:33:44;;;;;;;6.82;3.13;;;;;;;-148.88;56.21;74629.75;5018524;28;20089;-85
2022/05/18 09:36:39;;;;;;;5.57;2.92;;;;;;;-148.88;55.73;74603.34;5036447;28;20033;-85
2022/05/18 09:39:08;;;;;;;7.80;2.90;;;;;;;-148.88;55.80;74585.09;5036257;28;20052;-84
2022/05/18 09:41:43;;;;;;;5.68;2.75;;;;;;;-148.88;55.99;74572.91;5038836;28;20017;-85
2022/05/18 09:44:26;;;;;;;5.53;2.90;;;;;;;-148.88;54.12;74542.44;5018450;28;20032;-84
2022/05/18 09:46:52;;;;;;;4.78;2.75;;;;;;;-148.88;47.04;74546.50;5018355;28;20064;-85
2022/05/18 09:49:35;;;;;;;5.53;2.90;;;;;;;-148.88;49.85;74511.97;5035978;28;20037;-84
2022/05/18 09:52:03;;;;;;;5.17;2.93;;;;;;;-148.88;51.65;74497.78;5035909;28;20025;-85
2022/05/18 09:54:33;;;;;;;7.70;3.10;;;;;;;-148.88;51.97;74453.09;5035830;28;20029;-85
2022/05/18 09:57:13;;;;;;;5.60;2.90;;;;;;;-148.88;48.80;74451.06;5035809;28;20029;-84
2022/05/18 09:59:51;;;;;;;4.60;2.75;;;;;;;-148.88;48.73;74489.66;5019007;28;20028;-85
2022/05/18 10:07:52;;;;;;;4.53;2.55;;;;;;;-148.88;50.72;74392.19;5036152;28;20505;-85
2022/05/18 10:10:32;;;;;;;5.50;3.42;;;;;;;-148.88;48.55;74363.75;5017884;28;20026;-85
2022/05/18 10:13:03;;;;;;;5.53;2.70;;;;;;;-148.88;47.82;74343.44;5035829;28;20072;-85
2022/05/18 10:15:43;;;;;;;3.85;2.80;;;;;;;-148.88;44.31;74363.75;5018027;28;20032;-86
2022/05/18 10:18:33;;;;;;;5.32;2.72;;;;;;;-148.88;47.18;74331.25;5035837;28;20390;-85
2022/05/18 10:21:04;;;;;;;6.32;2.70;;;;;;;-148.88;45.34;74333.28;5037607;28;20046;-86
2022/05/18 10:23:34;;;;;;;4.82;2.55;;;;;;;-148.88;46.87;74317.06;5035785;28;20395;-86
2022/05/18 10:26:00;;;;;;;7.45;3.20;;;;;;;-148.88;46.36;74313.00;5035998;28;20037;-85
2022/05/18 10:28:28;;;;;;;5.60;2.90;;;;;;;-148.88;45.48;74313.00;5036755;28;20021;-87
2022/05/18 10:31:03;;;;;;;4.03;3.00;;;;;;;-148.88;44.41;74315.03;5018635;28;20029;-86
2022/05/18 10:33:36;;;;;;;4.22;2.55;;;;;;;-148.88;45.00;74280.50;5036306;28;20025;-86
2022/05/18 10:36:22;;;;;;;6.60;3.35;;;;;;;-148.88;45.76;74254.09;5039353;28;20034;-86
2022/05/18 10:38:54;;;;;;;7.20;2.90;;;;;;;-148.88;44.31;74246.00;5035674;28;20121;-85
2022/05/18 10:41:26;;;;;;;5.63;2.55;;;;;;;-148.88;44.67;74231.78;5035028;28;20035;-86
2022/05/18 10:43:54;;;;;;;5.43;2.85;;;;;;;-148.88;43.41;74221.63;5017463;28;20112;-85
2022/05/18 10:46:31;;;;;;;5.28;2.53;;;;;;;-148.88;42.62;74286.59;5035014;28;20061;-86
2022/05/18 10:49:06;;;;;;;5.10;2.88;;;;;;;-148.88;47.18;74221.63;5035329;28;20029;-86
2022/05/18 10:51:43;;;;;;;4.60;2.90;;;;;;;-148.88;46.20;74221.63;5034915;28;20028;-86
2022/05/18 10:54:25;;;;;;;6.15;2.80;;;;;;;-148.88;46.45;74164.78;5034978;28;20032;-85
2022/05/18 10:56:52;;;;;;;4.93;2.53;;;;;;;-148.88;42.49;74185.06;5035127;28;20029;-85
2022/05/18 10:59:53;;;;;;;5.75;2.83;;;;;;;-148.88;42.68;74201.31;5035050;28;20029;-85
2022/05/18 11:02:36;;;;;;;5.18;2.67;;;;;;;-148.88;43.18;74243.97;5034555;28;20104;-85
2022/05/18 11:05:22;;;;;;;3.95;2.42;;;;;;;-148.88;44.20;74298.78;5034831;28;20096;-85
2022/05/18 11:07:49;;;;;;;3.95;2.70;;;;;;;-148.88;43.88;74213.50;5034468;28;20025;-86
2022/05/18 11:10:15;;;;;;;3.50;2.42;;;;;;;-148.88;41.73;74223.66;5035105;28;20028;-85
2022/05/18 11:13:03;;;;;;;5.68;2.92;;;;;;;-148.88;44.56;74207.41;5034444;28;20021;-85
2022/05/18 11:15:42;;;;;;;4.45;2.28;;;;;;;-148.88;44.26;74174.91;5016668;28;20033;-86
2022/05/18 11:18:13;;;;;;;5.90;2.90;;;;;;;-148.88;44.56;74140.41;5034923;28;20467;-85
2022/05/18 11:20:58;;;;;;;5.05;2.70;;;;;;;-148.88;42.54;74162.75;5016168;28;20033;-85
2022/05/18 11:23:49;;;;;;;7.00;2.70;;;;;;;-148.88;41.31;74132.28;5034371;28;20491;-85
2022/05/18 11:26:23;;;;;;;4.22;2.58;;;;;;;-148.88;42.36;74156.66;5034991;28;20026;-85
2022/05/18 11:29:13;;;;;;;5.35;2.50;;;;;;;-148.88;41.74;74128.22;5017110;28;20118;-84
2022/05/18 11:32:04;;;;;;;4.60;2.42;;;;;;;-148.88;42.34;74109.94;5034443;28;20041;-84
2022/05/18 11:34:38;;;;;;;3.78;2.30;;;;;;;-148.88;43.28;74099.78;5016965;28;20018;-84
2022/05/18 11:37:15;;;;;;;3.95;2.20;;;;;;;-148.88;40.51;74099.78;5034501;28;20061;-84
2022/05/18 11:40:18;;;;;;;4.72;2.20;;;;;;;-148.88;39.69;74118.06;5034132;28;20478;-85
2022/05/18 11:42:43;;;;;;;4.22;2.45;;;;;;;-148.88;45.18;74075.44;5034361;28;20033;-84
2022/05/18 11:45:36;;;;;;;3.60;2.43;;;;;;;-148.88;39.28;74085.59;5034124;28;20405;-84